sensor_id;sensor_type;location;lat;lon;timestamp;temperature;humidity
10390;DHT22;5241;47.830;12.972;2022-09-09T00:03:30;14.60;99.90
10390;DHT22;5241;47.830;12.972;2022-09-09T00:06:12;14.50;99.90
10390;DHT22;5241;47.830;12.972;2022-09-09T00:08:58;14.50;99.90
10390;DHT22;5241;47.830;12.972;2022-09-09T00:11:41;14.50;99.90
10390;DHT22;5241;47.830;12.972;2022-09-09T00:17:06;14.50;99.90
10390;DHT22;5241;47.830;12.972;2022-09-09T00:22:20;14.50;99.90
10390;DHT22;5241;47.830;12.972;2022-09-09T00:24:52;14.50;99.90
10390;DHT22;5241;47.830;12.972;2022-09-09T00:33:09;14.50;99.90
10390;DHT22;5241;47.830;12.972;2022-09-09T00:35:40;14.50;99.90
10390;DHT22;5241;47.830;12.972;2022-09-09T00:38:15;14.60;99.90
10390;DHT22;5241;47.830;12.972;2022-09-09T00:43:37;14.70;99.90
10390;DHT22;5241;47.830;12.972;2022-09-09T00:46:41;14.70;99.90
10390;DHT22;5241;47.830;12.972;2022-09-09T00:49:32;14.80;99.90
10390;DHT22;5241;47.830;12.972;2022-09-09T00:55:05;14.90;99.90
10390;DHT22;5241;47.830;12.972;2022-09-09T00:57:33;14.90;99.90
10390;DHT22;5241;47.830;12.972;2022-09-09T01:08:25;14.90;99.90
10390;DHT22;5241;47.830;12.972;2022-09-09T01:10:54;14.90;99.90
10390;DHT22;5241;47.830;12.972;2022-09-09T01:13:29;15.00;99.90
10390;DHT22;5241;47.830;12.972;2022-09-09T01:15:58;15.00;99.90
10390;DHT22;5241;47.830;12.972;2022-09-09T01:18:27;15.00;99.90
10390;DHT22;5241;47.830;12.972;2022-09-09T01:21:09;14.90;99.90
10390;DHT22;5241;47.830;12.972;2022-09-09T01:26:19;14.90;99.90
10390;DHT22;5241;47.830;12.972;2022-09-09T01:28:48;14.90;99.90
10390;DHT22;5241;47.830;12.972;2022-09-09T01:31:37;14.90;99.90
10390;DHT22;5241;47.830;12.972;2022-09-09T01:34:14;14.90;99.90
10390;DHT22;5241;47.830;12.972;2022-09-09T01:36:56;14.90;99.90
10390;DHT22;5241;47.830;12.972;2022-09-09T01:39:23;14.90;99.90
10390;DHT22;5241;47.830;12.972;2022-09-09T01:41:48;14.90;99.90
10390;DHT22;5241;47.830;12.972;2022-09-09T01:44:14;14.90;99.90
10390;DHT22;5241;47.830;12.972;2022-09-09T01:46:40;14.80;99.90
10390;DHT22;5241;47.830;12.972;2022-09-09T01:49:07;14.70;99.90
10390;DHT22;5241;47.830;12.972;2022-09-09T01:51:35;14.70;99.90
10390;DHT22;5241;47.830;12.972;2022-09-09T01:54:01;14.70;99.90
10390;DHT22;5241;47.830;12.972;2022-09-09T01:59:45;14.60;99.90
10390;DHT22;5241;47.830;12.972;2022-09-09T02:07:42;14.50;99.90
10390;DHT22;5241;47.830;12.972;2022-09-09T02:10:21;14.60;99.90
10390;DHT22;5241;47.830;12.972;2022-09-09T02:12:52;14.60;99.90
10390;DHT22;5241;47.830;12.972;2022-09-09T02:15:45;14.60;99.90
10390;DHT22;5241;47.830;12.972;2022-09-09T02:18:13;14.60;99.90
10390;DHT22;5241;47.830;12.972;2022-09-09T02:20:41;14.60;99.90
10390;DHT22;5241;47.830;12.972;2022-09-09T02:23:09;14.60;99.90
10390;DHT22;5241;47.830;12.972;2022-09-09T02:25:36;14.70;99.90
10390;DHT22;5241;47.830;12.972;2022-09-09T02:28:05;14.70;99.90
10390;DHT22;5241;47.830;12.972;2022-09-09T02:30:34;14.70;99.90
10390;DHT22;5241;47.830;12.972;2022-09-09T02:33:04;14.80;99.90
10390;DHT22;5241;47.830;12.972;2022-09-09T02:35:32;14.70;99.90
10390;DHT22;5241;47.830;12.972;2022-09-09T02:38:05;14.70;99.90
10390;DHT22;5241;47.830;12.972;2022-09-09T02:40:32;14.70;99.90
10390;DHT22;5241;47.830;12.972;2022-09-09T02:42:58;14.70;99.90
10390;DHT22;5241;47.830;12.972;2022-09-09T02:45:29;14.70;99.90
10390;DHT22;5241;47.830;12.972;2022-09-09T02:50:33;14.70;99.90
10390;DHT22;5241;47.830;12.972;2022-09-09T02:53:28;14.70;99.90
10390;DHT22;5241;47.830;12.972;2022-09-09T02:56:04;14.80;99.90
10390;DHT22;5241;47.830;12.972;2022-09-09T02:58:30;14.70;99.90
10390;DHT22;5241;47.830;12.972;2022-09-09T03:00:57;14.70;99.90
10390;DHT22;5241;47.830;12.972;2022-09-09T03:03:23;14.70;99.90
10390;DHT22;5241;47.830;12.972;2022-09-09T03:05:49;14.60;99.90
10390;DHT22;5241;47.830;12.972;2022-09-09T03:08:15;14.50;99.90
10390;DHT22;5241;47.830;12.972;2022-09-09T03:10:41;14.50;99.90
10390;DHT22;5241;47.830;12.972;2022-09-09T03:13:07;14.40;99.90
10390;DHT22;5241;47.830;12.972;2022-09-09T03:15:33;14.30;99.90
10390;DHT22;5241;47.830;12.972;2022-09-09T03:17:59;14.30;99.90
10390;DHT22;5241;47.830;12.972;2022-09-09T03:20:26;14.20;99.90
10390;DHT22;5241;47.830;12.972;2022-09-09T03:22:53;14.10;99.90
10390;DHT22;5241;47.830;12.972;2022-09-09T03:25:18;14.10;99.90
10390;DHT22;5241;47.830;12.972;2022-09-09T03:27:44;14.20;99.90
10390;DHT22;5241;47.830;12.972;2022-09-09T03:30:10;14.20;99.90
10390;DHT22;5241;47.830;12.972;2022-09-09T03:32:36;14.20;99.90
10390;DHT22;5241;47.830;12.972;2022-09-09T03:35:02;14.20;99.90
10390;DHT22;5241;47.830;12.972;2022-09-09T03:37:28;14.10;99.90
10390;DHT22;5241;47.830;12.972;2022-09-09T03:39:54;14.10;99.90
10390;DHT22;5241;47.830;12.972;2022-09-09T03:42:20;14.20;99.90
10390;DHT22;5241;47.830;12.972;2022-09-09T03:44:48;14.20;99.90
10390;DHT22;5241;47.830;12.972;2022-09-09T03:47:21;14.30;99.90
10390;DHT22;5241;47.830;12.972;2022-09-09T03:49:47;14.30;99.90
10390;DHT22;5241;47.830;12.972;2022-09-09T03:52:14;14.30;99.90
10390;DHT22;5241;47.830;12.972;2022-09-09T03:54:40;14.30;99.90
10390;DHT22;5241;47.830;12.972;2022-09-09T03:57:06;14.30;99.90
10390;DHT22;5241;47.830;12.972;2022-09-09T03:59:32;14.30;99.90
10390;DHT22;5241;47.830;12.972;2022-09-09T04:01:57;14.30;99.90
10390;DHT22;5241;47.830;12.972;2022-09-09T04:04:24;14.30;99.90
10390;DHT22;5241;47.830;12.972;2022-09-09T04:06:51;14.30;99.90
10390;DHT22;5241;47.830;12.972;2022-09-09T04:09:17;14.30;99.90
10390;DHT22;5241;47.830;12.972;2022-09-09T04:11:42;14.40;99.90
10390;DHT22;5241;47.830;12.972;2022-09-09T04:14:08;14.40;99.90
10390;DHT22;5241;47.830;12.972;2022-09-09T04:16:34;14.40;99.90
10390;DHT22;5241;47.830;12.972;2022-09-09T04:19:03;14.40;99.90
10390;DHT22;5241;47.830;12.972;2022-09-09T04:21:30;14.50;99.90
10390;DHT22;5241;47.830;12.972;2022-09-09T04:23:56;14.50;99.90
10390;DHT22;5241;47.830;12.972;2022-09-09T04:26:21;14.50;99.90
10390;DHT22;5241;47.830;12.972;2022-09-09T04:28:47;14.60;99.90
10390;DHT22;5241;47.830;12.972;2022-09-09T04:31:17;14.60;99.90
10390;DHT22;5241;47.830;12.972;2022-09-09T04:33:43;14.60;99.90
10390;DHT22;5241;47.830;12.972;2022-09-09T04:36:09;14.60;99.90
10390;DHT22;5241;47.830;12.972;2022-09-09T04:38:35;14.60;99.90
10390;DHT22;5241;47.830;12.972;2022-09-09T04:41:00;14.60;99.90
10390;DHT22;5241;47.830;12.972;2022-09-09T04:43:26;14.60;99.90
10390;DHT22;5241;47.830;12.972;2022-09-09T04:45:52;14.70;99.90
10390;DHT22;5241;47.830;12.972;2022-09-09T04:48:19;14.70;99.90
10390;DHT22;5241;47.830;12.972;2022-09-09T04:51:14;14.80;99.90
10390;DHT22;5241;47.830;12.972;2022-09-09T04:53:39;14.80;99.90
10390;DHT22;5241;47.830;12.972;2022-09-09T04:56:10;14.80;99.90
10390;DHT22;5241;47.830;12.972;2022-09-09T04:58:37;14.80;99.90
10390;DHT22;5241;47.830;12.972;2022-09-09T05:01:13;14.90;99.90
10390;DHT22;5241;47.830;12.972;2022-09-09T05:03:39;14.90;99.90
10390;DHT22;5241;47.830;12.972;2022-09-09T05:06:10;14.90;99.90
10390;DHT22;5241;47.830;12.972;2022-09-09T05:08:37;14.80;99.90
10390;DHT22;5241;47.830;12.972;2022-09-09T05:14:01;14.80;99.90
10390;DHT22;5241;47.830;12.972;2022-09-09T05:16:27;14.90;99.90
10390;DHT22;5241;47.830;12.972;2022-09-09T05:18:52;14.90;99.90
10390;DHT22;5241;47.830;12.972;2022-09-09T05:21:20;14.90;99.90
10390;DHT22;5241;47.830;12.972;2022-09-09T05:23:46;14.90;99.90
10390;DHT22;5241;47.830;12.972;2022-09-09T05:26:15;14.80;99.90
10390;DHT22;5241;47.830;12.972;2022-09-09T05:28:41;14.80;99.90
10390;DHT22;5241;47.830;12.972;2022-09-09T05:31:08;14.90;99.90
10390;DHT22;5241;47.830;12.972;2022-09-09T05:33:38;14.90;99.90
10390;DHT22;5241;47.830;12.972;2022-09-09T05:36:07;14.90;99.90
10390;DHT22;5241;47.830;12.972;2022-09-09T05:38:34;15.10;99.90
10390;DHT22;5241;47.830;12.972;2022-09-09T05:41:01;15.00;99.90
10390;DHT22;5241;47.830;12.972;2022-09-09T05:43:27;15.00;99.90
10390;DHT22;5241;47.830;12.972;2022-09-09T05:46:08;15.00;99.90
10390;DHT22;5241;47.830;12.972;2022-09-09T05:48:37;15.00;99.90
10390;DHT22;5241;47.830;12.972;2022-09-09T05:51:04;15.00;99.90
10390;DHT22;5241;47.830;12.972;2022-09-09T05:53:30;15.00;99.90
10390;DHT22;5241;47.830;12.972;2022-09-09T05:58:29;15.00;99.90
10390;DHT22;5241;47.830;12.972;2022-09-09T06:01:01;15.00;99.90
10390;DHT22;5241;47.830;12.972;2022-09-09T06:03:27;15.10;99.90
10390;DHT22;5241;47.830;12.972;2022-09-09T06:06:03;15.10;99.90
10390;DHT22;5241;47.830;12.972;2022-09-09T06:08:31;15.10;99.90
10390;DHT22;5241;47.830;12.972;2022-09-09T06:11:02;15.10;99.90
10390;DHT22;5241;47.830;12.972;2022-09-09T06:13:29;15.10;99.90
10390;DHT22;5241;47.830;12.972;2022-09-09T06:15:54;15.20;99.90
10390;DHT22;5241;47.830;12.972;2022-09-09T06:18:20;15.20;99.90
10390;DHT22;5241;47.830;12.972;2022-09-09T06:21:04;15.30;99.90
10390;DHT22;5241;47.830;12.972;2022-09-09T06:23:30;15.30;99.90
10390;DHT22;5241;47.830;12.972;2022-09-09T06:26:09;15.30;99.90
10390;DHT22;5241;47.830;12.972;2022-09-09T06:28:35;15.40;99.90
10390;DHT22;5241;47.830;12.972;2022-09-09T06:31:02;15.40;99.90
10390;DHT22;5241;47.830;12.972;2022-09-09T06:33:34;15.30;99.90
10390;DHT22;5241;47.830;12.972;2022-09-09T06:36:01;15.30;99.90
10390;DHT22;5241;47.830;12.972;2022-09-09T06:38:27;15.30;99.90
10390;DHT22;5241;47.830;12.972;2022-09-09T06:40:53;15.30;99.90
10390;DHT22;5241;47.830;12.972;2022-09-09T06:43:21;15.30;99.90
10390;DHT22;5241;47.830;12.972;2022-09-09T06:45:57;15.30;99.90
10390;DHT22;5241;47.830;12.972;2022-09-09T06:48:23;15.40;99.90
10390;DHT22;5241;47.830;12.972;2022-09-09T06:50:51;15.40;99.90
10390;DHT22;5241;47.830;12.972;2022-09-09T06:53:25;15.40;99.90
10390;DHT22;5241;47.830;12.972;2022-09-09T06:55:51;15.40;99.90
10390;DHT22;5241;47.830;12.972;2022-09-09T06:58:17;15.40;99.90
10390;DHT22;5241;47.830;12.972;2022-09-09T07:00:42;15.50;99.90
10390;DHT22;5241;47.830;12.972;2022-09-09T07:03:10;15.50;99.90
10390;DHT22;5241;47.830;12.972;2022-09-09T07:05:36;15.40;99.90
10390;DHT22;5241;47.830;12.972;2022-09-09T07:08:02;15.40;99.90
10390;DHT22;5241;47.830;12.972;2022-09-09T07:10:28;15.50;99.90
10390;DHT22;5241;47.830;12.972;2022-09-09T07:12:53;15.50;99.90
10390;DHT22;5241;47.830;12.972;2022-09-09T07:15:20;15.50;99.90
10390;DHT22;5241;47.830;12.972;2022-09-09T07:17:48;15.60;99.90
10390;DHT22;5241;47.830;12.972;2022-09-09T07:20:14;15.60;99.90
10390;DHT22;5241;47.830;12.972;2022-09-09T07:22:40;15.70;99.90
10390;DHT22;5241;47.830;12.972;2022-09-09T07:25:07;15.70;99.90
10390;DHT22;5241;47.830;12.972;2022-09-09T07:27:33;15.80;99.90
10390;DHT22;5241;47.830;12.972;2022-09-09T07:29:58;15.80;99.90
10390;DHT22;5241;47.830;12.972;2022-09-09T07:32:24;15.80;99.90
10390;DHT22;5241;47.830;12.972;2022-09-09T07:34:51;15.80;99.90
10390;DHT22;5241;47.830;12.972;2022-09-09T07:37:17;15.80;99.90
10390;DHT22;5241;47.830;12.972;2022-09-09T07:39:43;15.80;99.90
10390;DHT22;5241;47.830;12.972;2022-09-09T07:42:09;15.80;99.90
10390;DHT22;5241;47.830;12.972;2022-09-09T07:44:37;15.80;99.90
10390;DHT22;5241;47.830;12.972;2022-09-09T07:47:05;15.80;99.90
10390;DHT22;5241;47.830;12.972;2022-09-09T07:49:31;15.80;99.90
10390;DHT22;5241;47.830;12.972;2022-09-09T07:51:58;15.90;99.90
10390;DHT22;5241;47.830;12.972;2022-09-09T07:54:24;15.90;99.90
10390;DHT22;5241;47.830;12.972;2022-09-09T07:56:50;16.00;99.90
10390;DHT22;5241;47.830;12.972;2022-09-09T07:59:16;15.90;99.90
10390;DHT22;5241;47.830;12.972;2022-09-09T08:01:52;15.80;99.90
10390;DHT22;5241;47.830;12.972;2022-09-09T08:04:20;15.70;99.90
10390;DHT22;5241;47.830;12.972;2022-09-09T08:06:57;15.60;99.90
10390;DHT22;5241;47.830;12.972;2022-09-09T08:09:24;15.60;99.90
10390;DHT22;5241;47.830;12.972;2022-09-09T08:11:54;15.70;99.90
10390;DHT22;5241;47.830;12.972;2022-09-09T08:14:22;15.70;99.90
10390;DHT22;5241;47.830;12.972;2022-09-09T08:16:49;15.70;99.90
10390;DHT22;5241;47.830;12.972;2022-09-09T08:19:15;15.80;99.90
10390;DHT22;5241;47.830;12.972;2022-09-09T08:21:42;15.90;99.90
10390;DHT22;5241;47.830;12.972;2022-09-09T08:24:09;15.90;99.90
10390;DHT22;5241;47.830;12.972;2022-09-09T08:26:42;15.90;99.90
10390;DHT22;5241;47.830;12.972;2022-09-09T08:29:09;15.80;99.90
10390;DHT22;5241;47.830;12.972;2022-09-09T08:31:47;15.80;99.90
10390;DHT22;5241;47.830;12.972;2022-09-09T08:34:13;15.90;99.90
10390;DHT22;5241;47.830;12.972;2022-09-09T08:36:41;15.90;99.90
10390;DHT22;5241;47.830;12.972;2022-09-09T08:39:09;15.90;99.90
10390;DHT22;5241;47.830;12.972;2022-09-09T08:44:45;16.00;99.90
10390;DHT22;5241;47.830;12.972;2022-09-09T08:50:32;16.00;99.90
10390;DHT22;5241;47.830;12.972;2022-09-09T08:53:20;16.00;99.90
10390;DHT22;5241;47.830;12.972;2022-09-09T08:58:22;16.00;99.90
10390;DHT22;5241;47.830;12.972;2022-09-09T09:06:37;16.30;99.90
10390;DHT22;5241;47.830;12.972;2022-09-09T09:11:43;16.10;99.90
10390;DHT22;5241;47.830;12.972;2022-09-09T09:14:20;16.00;99.90
10390;DHT22;5241;47.830;12.972;2022-09-09T09:19:29;16.00;99.90
10390;DHT22;5241;47.830;12.972;2022-09-09T09:25:05;16.10;99.90
10390;DHT22;5241;47.830;12.972;2022-09-09T09:28:10;16.10;99.90
10390;DHT22;5241;47.830;12.972;2022-09-09T09:31:05;16.20;99.90
10390;DHT22;5241;47.830;12.972;2022-09-09T09:33:50;16.20;99.90
10390;DHT22;5241;47.830;12.972;2022-09-09T09:36:18;16.30;99.90
10390;DHT22;5241;47.830;12.972;2022-09-09T09:38:59;16.30;99.90
10390;DHT22;5241;47.830;12.972;2022-09-09T09:41:32;16.20;99.90
10390;DHT22;5241;47.830;12.972;2022-09-09T09:43:59;16.20;99.90
10390;DHT22;5241;47.830;12.972;2022-09-09T09:46:26;16.10;99.90
10390;DHT22;5241;47.830;12.972;2022-09-09T09:49:04;16.00;99.90
10390;DHT22;5241;47.830;12.972;2022-09-09T09:51:32;16.00;99.90
10390;DHT22;5241;47.830;12.972;2022-09-09T09:54:09;15.90;99.90
10390;DHT22;5241;47.830;12.972;2022-09-09T09:56:39;15.90;99.90
10390;DHT22;5241;47.830;12.972;2022-09-09T09:59:11;15.80;99.90
10390;DHT22;5241;47.830;12.972;2022-09-09T10:01:44;15.70;99.90
10390;DHT22;5241;47.830;12.972;2022-09-09T10:04:17;15.60;99.90
10390;DHT22;5241;47.830;12.972;2022-09-09T10:06:44;15.60;99.90
10390;DHT22;5241;47.830;12.972;2022-09-09T10:09:25;15.50;99.90
10390;DHT22;5241;47.830;12.972;2022-09-09T10:14:21;15.60;99.90
10390;DHT22;5241;47.830;12.972;2022-09-09T10:19:37;15.70;99.90
10390;DHT22;5241;47.830;12.972;2022-09-09T10:22:18;15.90;99.90
10390;DHT22;5241;47.830;12.972;2022-09-09T10:25:25;16.00;99.90
10390;DHT22;5241;47.830;12.972;2022-09-09T10:30:49;15.90;99.90
10390;DHT22;5241;47.830;12.972;2022-09-09T10:33:48;16.10;99.90
10390;DHT22;5241;47.830;12.972;2022-09-09T10:36:25;16.10;99.90
10390;DHT22;5241;47.830;12.972;2022-09-09T10:39:10;16.10;99.90
10390;DHT22;5241;47.830;12.972;2022-09-09T10:42:14;16.20;99.90
10390;DHT22;5241;47.830;12.972;2022-09-09T10:53:28;16.70;99.90
10390;DHT22;5241;47.830;12.972;2022-09-09T10:56:09;16.70;99.90
10390;DHT22;5241;47.830;12.972;2022-09-09T10:58:48;16.70;99.90
10390;DHT22;5241;47.830;12.972;2022-09-09T11:01:36;16.70;99.90
10390;DHT22;5241;47.830;12.972;2022-09-09T11:07:25;16.90;99.90
10390;DHT22;5241;47.830;12.972;2022-09-09T11:09:57;17.00;99.90
10390;DHT22;5241;47.830;12.972;2022-09-09T11:12:27;16.90;99.90
10390;DHT22;5241;47.830;12.972;2022-09-09T11:15:01;16.90;99.90
10390;DHT22;5241;47.830;12.972;2022-09-09T11:17:56;16.80;99.90
10390;DHT22;5241;47.830;12.972;2022-09-09T11:20:25;16.80;99.90
10390;DHT22;5241;47.830;12.972;2022-09-09T11:25:42;16.80;99.90
10390;DHT22;5241;47.830;12.972;2022-09-09T11:37:15;17.10;99.90
10390;DHT22;5241;47.830;12.972;2022-09-09T11:40:14;17.10;99.90
10390;DHT22;5241;47.830;12.972;2022-09-09T11:42:40;17.10;99.90
10390;DHT22;5241;47.830;12.972;2022-09-09T11:45:19;17.30;99.90
10390;DHT22;5241;47.830;12.972;2022-09-09T11:47:56;17.50;99.90
10390;DHT22;5241;47.830;12.972;2022-09-09T11:52:48;17.50;99.90
10390;DHT22;5241;47.830;12.972;2022-09-09T11:55:28;17.50;99.90
10390;DHT22;5241;47.830;12.972;2022-09-09T12:00:40;17.80;99.90
10390;DHT22;5241;47.830;12.972;2022-09-09T12:05:59;17.90;99.90
10390;DHT22;5241;47.830;12.972;2022-09-09T12:08:28;17.70;99.90
10390;DHT22;5241;47.830;12.972;2022-09-09T12:10:58;17.80;99.90
10390;DHT22;5241;47.830;12.972;2022-09-09T12:13:26;17.70;99.90
10390;DHT22;5241;47.830;12.972;2022-09-09T12:15:53;17.70;99.90
10390;DHT22;5241;47.830;12.972;2022-09-09T12:18:24;17.60;99.90
10390;DHT22;5241;47.830;12.972;2022-09-09T12:21:05;17.50;99.90
10390;DHT22;5241;47.830;12.972;2022-09-09T12:31:25;17.00;99.90
10390;DHT22;5241;47.830;12.972;2022-09-09T12:33:52;17.00;99.90
10390;DHT22;5241;47.830;12.972;2022-09-09T12:36:30;16.90;99.90
10390;DHT22;5241;47.830;12.972;2022-09-09T12:38:59;16.90;99.90
10390;DHT22;5241;47.830;12.972;2022-09-09T12:41:35;16.70;99.90
10390;DHT22;5241;47.830;12.972;2022-09-09T12:44:09;16.70;99.90
10390;DHT22;5241;47.830;12.972;2022-09-09T12:46:44;16.60;99.90
10390;DHT22;5241;47.830;12.972;2022-09-09T12:49:37;16.60;99.90
10390;DHT22;5241;47.830;12.972;2022-09-09T12:52:26;16.50;99.90
10390;DHT22;5241;47.830;12.972;2022-09-09T12:54:55;16.40;99.90
10390;DHT22;5241;47.830;12.972;2022-09-09T12:57:23;16.30;99.90
10390;DHT22;5241;47.830;12.972;2022-09-09T12:59:51;16.20;99.90
10390;DHT22;5241;47.830;12.972;2022-09-09T13:02:23;16.10;99.90
10390;DHT22;5241;47.830;12.972;2022-09-09T13:04:49;16.00;99.90
10390;DHT22;5241;47.830;12.972;2022-09-09T13:07:16;16.00;99.90
10390;DHT22;5241;47.830;12.972;2022-09-09T13:09:43;15.90;99.90
10390;DHT22;5241;47.830;12.972;2022-09-09T13:12:21;15.90;99.90
10390;DHT22;5241;47.830;12.972;2022-09-09T13:14:50;15.80;99.90
10390;DHT22;5241;47.830;12.972;2022-09-09T13:17:22;15.70;99.90
10390;DHT22;5241;47.830;12.972;2022-09-09T13:19:50;15.60;99.90
10390;DHT22;5241;47.830;12.972;2022-09-09T13:25:13;15.50;99.90
10390;DHT22;5241;47.830;12.972;2022-09-09T13:28:01;15.40;99.90
10390;DHT22;5241;47.830;12.972;2022-09-09T13:30:35;15.40;99.90
10390;DHT22;5241;47.830;12.972;2022-09-09T13:35:56;15.30;99.90
10390;DHT22;5241;47.830;12.972;2022-09-09T13:38:22;15.30;99.90
10390;DHT22;5241;47.830;12.972;2022-09-09T13:43:42;15.30;99.90
10390;DHT22;5241;47.830;12.972;2022-09-09T13:46:34;15.30;99.90
10390;DHT22;5241;47.830;12.972;2022-09-09T13:51:42;15.30;99.90
10390;DHT22;5241;47.830;12.972;2022-09-09T13:54:10;15.30;99.90
10390;DHT22;5241;47.830;12.972;2022-09-09T13:56:38;15.20;99.90
10390;DHT22;5241;47.830;12.972;2022-09-09T13:59:09;15.20;99.90
10390;DHT22;5241;47.830;12.972;2022-09-09T14:01:35;15.20;99.90
10390;DHT22;5241;47.830;12.972;2022-09-09T14:04:03;15.20;99.90
10390;DHT22;5241;47.830;12.972;2022-09-09T14:06:29;15.20;99.90
10390;DHT22;5241;47.830;12.972;2022-09-09T14:08:55;15.20;99.90
10390;DHT22;5241;47.830;12.972;2022-09-09T14:11:21;15.10;99.90
10390;DHT22;5241;47.830;12.972;2022-09-09T14:13:47;15.10;99.90
10390;DHT22;5241;47.830;12.972;2022-09-09T14:16:15;15.10;99.90
10390;DHT22;5241;47.830;12.972;2022-09-09T14:18:41;15.10;99.90
10390;DHT22;5241;47.830;12.972;2022-09-09T14:21:07;15.10;99.90
10390;DHT22;5241;47.830;12.972;2022-09-09T14:23:34;15.00;99.90
10390;DHT22;5241;47.830;12.972;2022-09-09T14:25:59;15.00;99.90
10390;DHT22;5241;47.830;12.972;2022-09-09T14:28:25;15.00;99.90
10390;DHT22;5241;47.830;12.972;2022-09-09T14:30:50;15.00;99.90
10390;DHT22;5241;47.830;12.972;2022-09-09T14:33:16;15.10;99.90
10390;DHT22;5241;47.830;12.972;2022-09-09T14:35:43;15.10;99.90
10390;DHT22;5241;47.830;12.972;2022-09-09T14:38:09;15.20;99.90
10390;DHT22;5241;47.830;12.972;2022-09-09T14:40:36;15.20;99.90
10390;DHT22;5241;47.830;12.972;2022-09-09T14:43:02;15.20;99.90
10390;DHT22;5241;47.830;12.972;2022-09-09T14:45:28;15.20;99.90
10390;DHT22;5241;47.830;12.972;2022-09-09T14:47:54;15.30;99.90
10390;DHT22;5241;47.830;12.972;2022-09-09T14:50:21;15.40;99.90
10390;DHT22;5241;47.830;12.972;2022-09-09T14:52:47;15.50;99.90
10390;DHT22;5241;47.830;12.972;2022-09-09T14:55:13;15.50;99.90
10390;DHT22;5241;47.830;12.972;2022-09-09T14:57:39;15.50;99.90
10390;DHT22;5241;47.830;12.972;2022-09-09T15:00:07;15.50;99.90
10390;DHT22;5241;47.830;12.972;2022-09-09T15:02:33;15.60;99.90
10390;DHT22;5241;47.830;12.972;2022-09-09T15:04:59;15.60;99.90
10390;DHT22;5241;47.830;12.972;2022-09-09T15:07:25;15.60;99.90
10390;DHT22;5241;47.830;12.972;2022-09-09T15:09:52;15.70;99.90
10390;DHT22;5241;47.830;12.972;2022-09-09T15:12:18;15.80;99.90
10390;DHT22;5241;47.830;12.972;2022-09-09T15:14:46;16.00;99.90
10390;DHT22;5241;47.830;12.972;2022-09-09T15:17:13;16.10;99.90
10390;DHT22;5241;47.830;12.972;2022-09-09T15:19:39;16.20;99.90
10390;DHT22;5241;47.830;12.972;2022-09-09T15:22:05;16.20;99.90
10390;DHT22;5241;47.830;12.972;2022-09-09T15:24:31;16.20;99.90
10390;DHT22;5241;47.830;12.972;2022-09-09T15:26:57;16.30;99.90
10390;DHT22;5241;47.830;12.972;2022-09-09T15:29:23;16.30;99.90
10390;DHT22;5241;47.830;12.972;2022-09-09T15:31:49;16.30;99.90
10390;DHT22;5241;47.830;12.972;2022-09-09T15:34:15;16.20;99.90
10390;DHT22;5241;47.830;12.972;2022-09-09T15:36:42;16.20;99.90
10390;DHT22;5241;47.830;12.972;2022-09-09T15:39:11;16.30;99.90
10390;DHT22;5241;47.830;12.972;2022-09-09T15:41:38;16.30;99.90
10390;DHT22;5241;47.830;12.972;2022-09-09T15:44:05;16.30;99.90
10390;DHT22;5241;47.830;12.972;2022-09-09T15:46:32;16.40;99.90
10390;DHT22;5241;47.830;12.972;2022-09-09T15:49:11;16.50;99.90
10390;DHT22;5241;47.830;12.972;2022-09-09T15:51:39;16.50;99.90
10390;DHT22;5241;47.830;12.972;2022-09-09T15:54:05;16.50;99.90
10390;DHT22;5241;47.830;12.972;2022-09-09T15:56:31;16.30;99.90
10390;DHT22;5241;47.830;12.972;2022-09-09T15:58:58;16.20;99.90
10390;DHT22;5241;47.830;12.972;2022-09-09T16:01:25;16.20;99.90
10390;DHT22;5241;47.830;12.972;2022-09-09T16:03:51;16.10;99.90
10390;DHT22;5241;47.830;12.972;2022-09-09T16:06:20;16.00;99.90
10390;DHT22;5241;47.830;12.972;2022-09-09T16:08:48;15.90;99.90
10390;DHT22;5241;47.830;12.972;2022-09-09T16:11:17;15.80;99.90
10390;DHT22;5241;47.830;12.972;2022-09-09T16:13:46;15.80;99.90
10390;DHT22;5241;47.830;12.972;2022-09-09T16:16:14;15.80;99.90
10390;DHT22;5241;47.830;12.972;2022-09-09T16:18:45;15.70;99.90
10390;DHT22;5241;47.830;12.972;2022-09-09T16:21:21;15.70;99.90
10390;DHT22;5241;47.830;12.972;2022-09-09T16:23:47;15.80;99.90
10390;DHT22;5241;47.830;12.972;2022-09-09T16:26:16;15.70;99.90
10390;DHT22;5241;47.830;12.972;2022-09-09T16:28:42;15.70;99.90
10390;DHT22;5241;47.830;12.972;2022-09-09T16:31:10;15.70;99.90
10390;DHT22;5241;47.830;12.972;2022-09-09T16:33:36;15.80;99.90
10390;DHT22;5241;47.830;12.972;2022-09-09T16:36:09;15.90;99.90
10390;DHT22;5241;47.830;12.972;2022-09-09T16:38:36;15.90;99.90
10390;DHT22;5241;47.830;12.972;2022-09-09T16:41:04;15.90;99.90
10390;DHT22;5241;47.830;12.972;2022-09-09T16:43:31;16.00;99.90
10390;DHT22;5241;47.830;12.972;2022-09-09T16:45:57;15.90;99.90
10390;DHT22;5241;47.830;12.972;2022-09-09T16:48:22;15.90;99.90
10390;DHT22;5241;47.830;12.972;2022-09-09T16:50:48;15.80;99.90
10390;DHT22;5241;47.830;12.972;2022-09-09T16:53:14;15.80;99.90
10390;DHT22;5241;47.830;12.972;2022-09-09T16:55:40;15.80;99.90
10390;DHT22;5241;47.830;12.972;2022-09-09T16:58:10;15.70;99.90
10390;DHT22;5241;47.830;12.972;2022-09-09T17:00:36;15.60;99.90
10390;DHT22;5241;47.830;12.972;2022-09-09T17:03:01;15.60;99.90
10390;DHT22;5241;47.830;12.972;2022-09-09T17:05:28;15.50;99.90
10390;DHT22;5241;47.830;12.972;2022-09-09T17:07:54;15.50;99.90
10390;DHT22;5241;47.830;12.972;2022-09-09T17:10:24;15.40;99.90
10390;DHT22;5241;47.830;12.972;2022-09-09T17:12:50;15.30;99.90
10390;DHT22;5241;47.830;12.972;2022-09-09T17:15:16;15.20;99.90
10390;DHT22;5241;47.830;12.972;2022-09-09T17:17:43;15.20;99.90
10390;DHT22;5241;47.830;12.972;2022-09-09T17:20:10;15.10;99.90
10390;DHT22;5241;47.830;12.972;2022-09-09T17:22:36;15.10;99.90
10390;DHT22;5241;47.830;12.972;2022-09-09T17:25:02;15.10;99.90
10390;DHT22;5241;47.830;12.972;2022-09-09T17:27:28;15.20;99.90
10390;DHT22;5241;47.830;12.972;2022-09-09T17:29:56;15.10;99.90
10390;DHT22;5241;47.830;12.972;2022-09-09T17:32:22;15.10;99.90
10390;DHT22;5241;47.830;12.972;2022-09-09T17:34:48;15.20;99.90
10390;DHT22;5241;47.830;12.972;2022-09-09T17:37:13;15.10;99.90
10390;DHT22;5241;47.830;12.972;2022-09-09T17:39:39;15.10;99.90
10390;DHT22;5241;47.830;12.972;2022-09-09T17:42:05;15.10;99.90
10390;DHT22;5241;47.830;12.972;2022-09-09T17:44:33;15.10;99.90
10390;DHT22;5241;47.830;12.972;2022-09-09T17:46:58;15.10;99.90
10390;DHT22;5241;47.830;12.972;2022-09-09T17:49:24;15.10;99.90
10390;DHT22;5241;47.830;12.972;2022-09-09T17:51:50;15.10;99.90
10390;DHT22;5241;47.830;12.972;2022-09-09T17:54:18;15.10;99.90
10390;DHT22;5241;47.830;12.972;2022-09-09T17:56:45;15.00;99.90